createdAt,value
2023-03-04T00:00:10.567Z,144.97
2023-03-04T00:00:45.802Z,139.93
2023-03-04T00:01:18.191Z,137.17
2023-03-04T00:01:50.745Z,137.17
2023-03-04T00:02:23.524Z,136.00
2023-03-04T00:02:56.028Z,134.27
2023-03-04T00:03:28.357Z,133.23
2023-03-04T00:04:00.653Z,136.33
2023-03-04T00:04:32.979Z,138.00
2023-03-04T00:05:05.675Z,139.03
2023-03-04T00:05:38.246Z,141.03
2023-03-04T00:06:10.633Z,144.47
2023-03-04T00:06:42.916Z,146.97
2023-03-04T00:07:17.030Z,141.80
2023-03-04T00:07:49.479Z,146.63
2023-03-04T00:08:21.776Z,149.67
2023-03-04T00:08:54.254Z,150.70
2023-03-04T00:09:26.941Z,150.70
2023-03-04T00:09:59.218Z,148.90
2023-03-04T00:10:31.610Z,150.90
2023-03-04T00:11:03.981Z,149.57
2023-03-04T00:11:36.509Z,149.80
2023-03-04T00:12:08.892Z,149.57
2023-03-04T00:12:41.324Z,145.97
2023-03-04T00:13:13.646Z,145.57
2023-03-04T00:13:45.985Z,145.87
2023-03-04T00:14:18.354Z,142.17
2023-03-04T00:14:50.670Z,139.33
2023-03-04T00:15:22.966Z,139.67
2023-03-04T00:15:55.272Z,134.50
2023-03-04T00:16:27.655Z,134.03
2023-03-04T00:17:00.118Z,131.03
2023-03-04T00:17:32.451Z,125.97
2023-03-04T00:18:04.838Z,127.23
2023-03-04T00:18:37.243Z,137.17
2023-03-04T00:19:11.193Z,140.17
2023-03-04T00:19:43.574Z,142.97
2023-03-04T00:20:15.882Z,141.73
2023-03-04T00:20:49.746Z,141.33
2023-03-04T00:21:22.570Z,140.77
2023-03-04T00:21:54.874Z,142.53
2023-03-04T00:22:27.144Z,144.23
2023-03-04T00:22:59.452Z,141.33
2023-03-04T00:23:31.788Z,141.17
2023-03-04T00:24:04.124Z,140.60
2023-03-04T00:24:36.465Z,140.07
2023-03-04T00:25:08.952Z,137.83
2023-03-04T00:25:43.443Z,136.23
2023-03-04T00:26:16.887Z,136.10
2023-03-04T00:26:49.211Z,137.03
2023-03-04T00:27:21.507Z,138.37
2023-03-04T00:27:53.854Z,137.57
2023-03-04T00:28:26.167Z,137.10
2023-03-04T00:28:58.498Z,134.67
2023-03-04T00:29:30.813Z,138.73
2023-03-04T00:30:03.574Z,137.00
2023-03-04T00:30:35.864Z,138.93
2023-03-04T00:31:08.794Z,132.63
2023-03-04T00:31:41.119Z,134.60
2023-03-04T00:32:13.475Z,135.53
2023-03-04T00:32:45.921Z,136.47
2023-03-04T00:33:18.393Z,135.30
2023-03-04T00:33:50.849Z,134.90
2023-03-04T00:34:23.159Z,134.77
2023-03-04T00:34:55.471Z,133.03
2023-03-04T00:35:27.882Z,132.80
2023-03-04T00:36:00.724Z,132.40
2023-03-04T00:36:33.064Z,132.07
2023-03-04T00:37:05.388Z,134.33
2023-03-04T00:37:37.688Z,132.40
2023-03-04T00:38:09.970Z,134.47
2023-03-04T00:38:42.338Z,134.87
2023-03-04T00:39:15.002Z,132.63
2023-03-04T00:39:47.436Z,128.87
2023-03-04T00:40:19.870Z,129.93
2023-03-04T00:40:52.166Z,137.03
2023-03-04T00:41:24.449Z,132.13
2023-03-04T00:41:56.754Z,130.43
2023-03-04T00:42:29.071Z,130.73
2023-03-04T00:43:01.402Z,132.30
2023-03-04T00:43:33.762Z,132.50
2023-03-04T00:44:06.614Z,128.07
2023-03-04T00:44:39.051Z,125.20
2023-03-04T00:45:11.488Z,125.43
2023-03-04T00:45:43.858Z,123.70
2023-03-04T00:46:16.185Z,126.13
2023-03-04T00:46:48.516Z,125.03
2023-03-04T00:47:20.846Z,125.47
2023-03-04T00:47:53.177Z,125.53
2023-03-04T00:48:26.041Z,122.37
2023-03-04T00:48:58.312Z,120.87
2023-03-04T00:49:30.582Z,120.67
2023-03-04T00:50:04.186Z,120.33
2023-03-04T00:50:37.410Z,121.97
2023-03-04T00:51:09.781Z,119.87
2023-03-04T00:51:42.080Z,125.60
2023-03-04T00:52:14.403Z,126.90
2023-03-04T00:52:46.701Z,126.87
2023-03-04T00:53:18.972Z,124.70
2023-03-04T00:53:52.328Z,128.90
2023-03-04T00:54:24.703Z,127.87
2023-03-04T00:54:56.993Z,128.37
2023-03-04T00:55:29.268Z,127.07
2023-03-04T00:56:01.603Z,125.47
2023-03-04T00:56:33.932Z,128.23
2023-03-04T00:57:06.267Z,126.63
2023-03-04T00:57:38.541Z,125.53
2023-03-04T00:58:10.825Z,127.13
2023-03-04T00:58:43.155Z,126.93
2023-03-04T00:59:15.525Z,125.33
2023-03-04T00:59:47.824Z,124.57
2023-03-04T01:00:20.490Z,126.17
2023-03-04T01:00:52.819Z,125.13
2023-03-04T01:01:25.141Z,121.03
2023-03-04T01:01:57.524Z,119.70
2023-03-04T01:02:29.957Z,122.73
2023-03-04T01:03:02.351Z,119.17
2023-03-04T01:03:34.690Z,122.17
2023-03-04T01:04:06.961Z,122.33
2023-03-04T01:04:39.645Z,124.13
2023-03-04T01:05:12.385Z,124.47
2023-03-04T01:05:44.711Z,120.23
2023-03-04T01:06:17.222Z,120.77
2023-03-04T01:06:49.553Z,123.63
2023-03-04T01:07:22.050Z,120.57
2023-03-04T01:07:54.413Z,120.83
2023-03-04T01:08:26.959Z,123.97
2023-03-04T01:08:59.262Z,127.03
2023-03-04T01:09:31.695Z,125.87
2023-03-04T01:10:05.648Z,127.03
2023-03-04T01:10:37.918Z,125.87
2023-03-04T01:11:10.312Z,126.00
2023-03-04T01:11:42.623Z,125.60
2023-03-04T01:12:14.955Z,123.40
2023-03-04T01:12:47.315Z,123.53
2023-03-04T01:13:19.691Z,124.40
2023-03-04T01:13:52.005Z,127.13
2023-03-04T01:14:24.454Z,126.17
2023-03-04T01:14:56.826Z,128.00
2023-03-04T01:15:29.132Z,128.73
2023-03-04T01:16:01.688Z,124.53
2023-03-04T01:16:34.106Z,127.57
2023-03-04T01:17:06.445Z,125.63
2023-03-04T01:17:38.839Z,124.87
2023-03-04T01:18:11.377Z,122.57
2023-03-04T01:18:43.812Z,122.33
2023-03-04T01:19:16.578Z,122.27
2023-03-04T01:19:49.035Z,117.33
2023-03-04T01:20:21.384Z,121.03
2023-03-04T01:20:53.796Z,119.80
2023-03-04T01:21:26.095Z,119.97
2023-03-04T01:21:58.371Z,121.20
2023-03-04T01:22:30.679Z,121.50
2023-03-04T01:23:02.999Z,118.70
2023-03-04T01:23:35.371Z,121.00
2023-03-04T01:24:07.850Z,119.67
2023-03-04T01:24:40.132Z,122.13
2023-03-04T01:25:12.637Z,120.03
2023-03-04T01:25:44.978Z,122.83
2023-03-04T01:26:17.545Z,119.23
2023-03-04T01:26:49.860Z,118.20
2023-03-04T01:27:22.402Z,119.97
2023-03-04T01:27:54.699Z,117.57
2023-03-04T01:28:26.983Z,119.40
2023-03-04T01:28:59.323Z,118.27
2023-03-04T01:29:31.641Z,116.80
2023-03-04T01:30:05.204Z,120.90
2023-03-04T01:30:37.585Z,119.07
2023-03-04T01:31:09.955Z,117.67
2023-03-04T01:31:42.335Z,117.43
2023-03-04T01:32:14.701Z,114.43
2023-03-04T01:32:47.055Z,115.80
2023-03-04T01:33:19.355Z,113.97
2023-03-04T01:33:51.825Z,116.13
2023-03-04T01:34:24.160Z,112.63
2023-03-04T01:34:56.528Z,109.10
2023-03-04T01:35:28.877Z,112.00
2023-03-04T01:36:01.199Z,115.00
2023-03-04T01:36:33.527Z,114.43
2023-03-04T01:37:06.053Z,115.77
2023-03-04T01:37:38.345Z,118.07
2023-03-04T01:38:10.722Z,118.83
2023-03-04T01:38:43.019Z,120.30
2023-03-04T01:39:15.360Z,125.50
2023-03-04T01:39:47.674Z,127.60
2023-03-04T01:40:20.213Z,129.70
2023-03-04T01:40:53.116Z,130.60
2023-03-04T01:41:27.171Z,133.80
2023-03-04T01:41:59.758Z,133.43
2023-03-04T01:42:34.896Z,135.93
2023-03-04T01:43:11.260Z,137.47
2023-03-04T01:43:45.061Z,136.40
2023-03-04T01:44:17.677Z,133.60
2023-03-04T01:44:51.531Z,134.43
2023-03-04T01:45:24.367Z,138.83
2023-03-04T01:45:58.521Z,141.33
2023-03-04T01:46:32.020Z,139.20
2023-03-04T01:47:04.435Z,138.73
2023-03-04T01:47:36.836Z,132.07
2023-03-04T01:48:12.890Z,131.97
2023-03-04T01:48:45.217Z,132.67
2023-03-04T01:49:18.464Z,135.53
2023-03-04T01:49:55.004Z,134.20
2023-03-04T01:50:34.536Z,133.47
2023-03-04T01:51:14.212Z,130.10
2023-03-04T01:51:50.541Z,126.03
2023-03-04T01:52:23.697Z,124.80
2023-03-04T01:52:56.069Z,121.77
2023-03-04T01:53:29.332Z,116.97
2023-03-04T01:54:01.643Z,117.23
2023-03-04T01:54:33.944Z,115.37
2023-03-04T01:55:15.668Z,113.03
2023-03-04T01:55:48.648Z,115.60
2023-03-04T01:56:31.205Z,112.40
2023-03-04T01:57:28.052Z,113.33
2023-03-04T01:58:00.906Z,115.07
2023-03-04T01:58:33.347Z,116.60
2023-03-04T01:59:18.404Z,115.27
2023-03-04T02:00:15.389Z,117.87
2023-03-04T02:00:47.785Z,120.73
2023-03-04T02:01:20.098Z,120.17
2023-03-04T02:01:55.840Z,122.07
2023-03-04T02:02:28.219Z,124.53
2023-03-04T02:03:11.487Z,125.57
2023-03-04T02:03:43.759Z,125.43
2023-03-04T02:04:17.746Z,124.93
2023-03-04T02:04:50.091Z,126.23
2023-03-04T02:05:22.888Z,135.17
2023-03-04T02:05:56.447Z,139.00
2023-03-04T02:06:28.763Z,135.77
2023-03-04T02:07:03.417Z,133.23
2023-03-04T02:07:36.055Z,136.63
2023-03-04T02:08:10.382Z,138.20
2023-03-04T02:08:42.739Z,143.57
2023-03-04T02:09:16.460Z,143.93
2023-03-04T02:09:49.265Z,138.63
2023-03-04T02:10:22.048Z,133.87
2023-03-04T02:10:55.321Z,135.00
2023-03-04T02:11:27.634Z,133.17
2023-03-04T02:12:00.743Z,128.77
2023-03-04T02:12:33.080Z,125.93
2023-03-04T02:13:06.303Z,124.87
2023-03-04T02:13:38.637Z,118.50
2023-03-04T02:14:12.644Z,115.97
2023-03-04T02:14:44.992Z,114.73
2023-03-04T02:15:17.802Z,115.77
2023-03-04T02:15:50.179Z,114.60
2023-03-04T02:16:22.494Z,113.23
2023-03-04T02:16:54.888Z,110.87
2023-03-04T02:17:28.090Z,108.87
2023-03-04T02:18:01.450Z,101.83
2023-03-04T02:18:33.744Z,95.07
2023-03-04T02:19:34.514Z,100.07
2023-03-04T02:20:21.307Z,100.20
2023-03-04T02:21:11.287Z,96.93
2023-03-04T02:21:43.625Z,97.23
2023-03-04T02:22:16.026Z,98.30
2023-03-04T02:23:01.030Z,96.93
2023-03-04T02:23:46.856Z,96.10
2023-03-04T02:24:47.593Z,96.33
2023-03-04T02:25:26.914Z,99.53
2023-03-04T02:26:15.900Z,108.33
2023-03-04T02:26:48.400Z,110.57
2023-03-04T02:27:22.104Z,110.70
2023-03-04T02:27:54.549Z,109.80
2023-03-04T02:28:26.882Z,112.03
2023-03-04T02:29:00.236Z,109.73
2023-03-04T02:29:32.851Z,109.13
2023-03-04T02:30:06.237Z,111.53
2023-03-04T02:30:38.722Z,109.97
2023-03-04T02:31:33.097Z,110.60
2023-03-04T02:32:05.543Z,109.50
2023-03-04T02:32:37.858Z,108.93
2023-03-04T02:33:18.588Z,111.30
2023-03-04T02:33:52.571Z,108.47
2023-03-04T02:34:29.761Z,108.50
2023-03-04T02:35:02.322Z,110.17
2023-03-04T02:35:34.682Z,109.53
2023-03-04T02:36:07.359Z,109.07
2023-03-04T02:36:40.910Z,107.97
2023-03-04T02:37:13.872Z,107.37
2023-03-04T02:37:46.207Z,110.03
2023-03-04T02:38:18.551Z,107.57
2023-03-04T02:38:53.388Z,108.07
2023-03-04T02:39:32.519Z,108.67
2023-03-04T02:40:06.510Z,106.40
2023-03-04T02:40:43.208Z,106.27
2023-03-04T02:41:20.459Z,106.50
2023-03-04T02:41:55.186Z,104.73
2023-03-04T02:42:27.480Z,102.30
2023-03-04T02:43:00.819Z,103.53
2023-03-04T02:43:33.127Z,104.70
2023-03-04T02:44:20.323Z,107.73
2023-03-04T02:45:00.808Z,108.53
2023-03-04T02:45:33.017Z,110.80
2023-03-04T02:46:06.013Z,110.43
2023-03-04T02:46:38.338Z,108.27
2023-03-04T02:47:12.001Z,108.50
2023-03-04T02:47:44.303Z,111.07
2023-03-04T02:48:21.574Z,109.20
2023-03-04T02:48:54.171Z,109.30
2023-03-04T02:49:29.734Z,107.93
2023-03-04T02:50:02.065Z,108.23
2023-03-04T02:50:39.192Z,109.00
2023-03-04T02:51:11.757Z,108.07
2023-03-04T02:51:44.195Z,106.43
2023-03-04T02:52:22.396Z,105.43
2023-03-04T02:52:54.700Z,106.53
2023-03-04T02:53:27.259Z,106.63
2023-03-04T02:53:59.565Z,104.47
2023-03-04T02:54:32.025Z,107.87
2023-03-04T02:55:04.577Z,105.70
2023-03-04T02:55:37.128Z,104.70
2023-03-04T02:56:09.417Z,103.70
2023-03-04T02:56:52.712Z,105.53
2023-03-04T02:57:25.030Z,104.17
2023-03-04T02:57:57.353Z,106.13
2023-03-04T02:58:29.904Z,105.33
2023-03-04T02:59:02.475Z,108.20
2023-03-04T02:59:36.137Z,108.03
2023-03-04T03:00:08.928Z,106.47
2023-03-04T03:00:41.261Z,103.77
2023-03-04T03:01:13.559Z,104.03
2023-03-04T03:01:46.682Z,102.00
2023-03-04T03:02:18.972Z,100.47
2023-03-04T03:02:51.654Z,102.73
2023-03-04T03:03:23.926Z,103.57
2023-03-04T03:03:56.267Z,103.50
2023-03-04T03:04:29.221Z,100.87
2023-03-04T03:05:01.694Z,101.07
2023-03-04T03:05:35.023Z,98.57
2023-03-04T03:06:07.555Z,100.63
2023-03-04T03:06:40.879Z,99.73
2023-03-04T03:07:13.568Z,97.27
2023-03-04T03:07:45.878Z,97.37
2023-03-04T03:08:18.198Z,97.67
2023-03-04T03:08:50.459Z,99.40
2023-03-04T03:09:22.972Z,93.77
2023-03-04T03:09:55.310Z,93.10
2023-03-04T03:10:27.611Z,92.77
2023-03-04T03:10:59.936Z,92.87
2023-03-04T03:11:32.450Z,95.97
2023-03-04T03:12:04.904Z,97.83
2023-03-04T03:12:37.193Z,94.43
2023-03-04T03:13:09.518Z,89.87
2023-03-04T03:13:41.819Z,88.03
2023-03-04T03:14:14.099Z,86.47
2023-03-04T03:14:46.434Z,84.33
2023-03-04T03:15:19.144Z,78.53
2023-03-04T03:15:51.420Z,75.90
2023-03-04T03:16:24.328Z,74.00
2023-03-04T03:16:56.671Z,71.63
2023-03-04T03:17:29.268Z,69.97
2023-03-04T03:18:01.594Z,70.10
2023-03-04T03:18:33.980Z,72.63
2023-03-04T03:19:06.752Z,72.60
2023-03-04T03:19:39.064Z,73.77
2023-03-04T03:20:13.286Z,75.53
2023-03-04T03:20:45.575Z,72.80
2023-03-04T03:21:18.214Z,71.27
2023-03-04T03:21:50.516Z,69.00
2023-03-04T03:22:22.943Z,67.60
2023-03-04T03:22:55.305Z,67.63
2023-03-04T03:23:27.598Z,66.67
2023-03-04T03:23:59.900Z,68.87
2023-03-04T03:24:32.241Z,73.70
2023-03-04T03:25:05.268Z,77.40
2023-03-04T03:25:38.057Z,75.23
2023-03-04T03:26:10.441Z,75.63
2023-03-04T03:26:42.713Z,78.60
2023-03-04T03:27:14.974Z,77.37
2023-03-04T03:27:47.338Z,78.27
2023-03-04T03:28:19.616Z,77.73
2023-03-04T03:28:51.908Z,76.10
2023-03-04T03:29:24.205Z,75.10
2023-03-04T03:29:56.741Z,74.63
2023-03-04T03:30:29.042Z,74.30
2023-03-04T03:31:01.362Z,78.97
2023-03-04T03:31:33.649Z,76.00
2023-03-04T03:32:06.344Z,73.17
2023-03-04T03:32:38.806Z,76.87
2023-03-04T03:33:11.137Z,79.17
2023-03-04T03:33:43.459Z,77.70
2023-03-04T03:34:15.790Z,80.07
2023-03-04T03:34:48.116Z,79.60
2023-03-04T03:35:20.475Z,80.17
2023-03-04T03:35:52.903Z,79.67
2023-03-04T03:36:25.330Z,80.17
2023-03-04T03:36:58.366Z,79.10
2023-03-04T03:37:30.669Z,77.57
2023-03-04T03:38:02.964Z,80.07
2023-03-04T03:38:35.312Z,81.07
2023-03-04T03:39:07.574Z,80.67
2023-03-04T03:39:39.888Z,79.13
2023-03-04T03:40:12.757Z,79.77
2023-03-04T03:40:45.056Z,82.70
2023-03-04T03:41:17.326Z,82.10
2023-03-04T03:41:50.183Z,81.77
2023-03-04T03:42:22.551Z,83.40
2023-03-04T03:42:54.859Z,84.23
2023-03-04T03:43:27.146Z,84.23
2023-03-04T03:43:59.438Z,84.73
2023-03-04T03:44:31.831Z,84.80
2023-03-04T03:45:04.412Z,85.37
2023-03-04T03:45:36.853Z,84.47
2023-03-04T03:46:09.239Z,82.33
2023-03-04T03:46:41.602Z,85.43
2023-03-04T03:47:14.032Z,83.00
2023-03-04T03:47:46.306Z,83.53
2023-03-04T03:48:18.829Z,84.00
2023-03-04T03:48:51.115Z,84.20
2023-03-04T03:49:23.385Z,82.73
2023-03-04T03:49:55.688Z,81.53
2023-03-04T03:50:29.445Z,81.80
2023-03-04T03:51:01.762Z,81.70
2023-03-04T03:51:34.088Z,85.13
2023-03-04T03:52:08.321Z,86.30
2023-03-04T03:52:40.721Z,85.37
2023-03-04T03:53:13.003Z,86.90
2023-03-04T03:53:45.309Z,85.37
2023-03-04T03:54:17.735Z,87.53
2023-03-04T03:54:50.076Z,87.10
2023-03-04T03:55:22.624Z,85.77
2023-03-04T03:55:54.885Z,84.70
2023-03-04T03:56:27.147Z,84.17
2023-03-04T03:56:59.424Z,84.53
2023-03-04T03:57:31.753Z,84.03
2023-03-04T03:58:04.131Z,85.03
2023-03-04T03:58:36.419Z,84.73
2023-03-04T03:59:08.723Z,84.83
2023-03-04T03:59:41.082Z,84.73
2023-03-04T04:00:14.083Z,84.77
2023-03-04T04:00:46.362Z,84.80
2023-03-04T04:01:18.690Z,86.93
2023-03-04T04:01:51.268Z,88.37
2023-03-04T04:02:24.297Z,86.87
2023-03-04T04:02:59.898Z,85.47
2023-03-04T04:03:32.186Z,85.27
2023-03-04T04:04:04.683Z,86.23
2023-03-04T04:04:36.978Z,86.57
2023-03-04T04:05:09.803Z,83.93
2023-03-04T04:05:42.081Z,88.20
2023-03-04T04:06:14.409Z,86.97
2023-03-04T04:06:46.723Z,86.97
2023-03-04T04:07:19.021Z,88.10
2023-03-04T04:07:53.693Z,85.17
2023-03-04T04:08:26.343Z,83.83
2023-03-04T04:08:58.639Z,86.10
2023-03-04T04:09:30.903Z,86.10
2023-03-04T04:10:04.636Z,85.00
2023-03-04T04:10:37.002Z,82.33
2023-03-04T04:11:13.456Z,86.10
2023-03-04T04:11:45.892Z,88.60
2023-03-04T04:12:19.240Z,87.17
2023-03-04T04:12:51.576Z,85.20
2023-03-04T04:13:23.850Z,84.90
2023-03-04T04:13:56.139Z,83.73
2023-03-04T04:14:28.479Z,83.13
2023-03-04T04:15:00.907Z,81.60
2023-03-04T04:15:33.242Z,85.23
2023-03-04T04:16:06.213Z,85.00
2023-03-04T04:16:38.619Z,85.23
2023-03-04T04:17:11.601Z,86.80
2023-03-04T04:17:43.923Z,86.13
2023-03-04T04:18:16.176Z,84.40
2023-03-04T04:18:48.445Z,81.83
2023-03-04T04:19:21.543Z,80.33
2023-03-04T04:19:53.810Z,81.90
2023-03-04T04:20:26.385Z,83.87
2023-03-04T04:20:58.673Z,83.77
2023-03-04T04:21:31.021Z,83.27
2023-03-04T04:22:03.585Z,81.70
2023-03-04T04:22:35.853Z,80.47
2023-03-04T04:23:08.119Z,80.73
2023-03-04T04:23:40.432Z,82.23
2023-03-04T04:24:12.791Z,81.97
2023-03-04T04:24:45.270Z,82.63
2023-03-04T04:25:17.925Z,82.40
2023-03-04T04:25:50.204Z,84.40
2023-03-04T04:26:22.531Z,86.13
2023-03-04T04:26:54.994Z,86.87
2023-03-04T04:27:27.351Z,85.73
2023-03-04T04:27:59.716Z,81.77
2023-03-04T04:28:32.231Z,80.50
2023-03-04T04:29:04.561Z,82.70
2023-03-04T04:29:37.534Z,84.83
2023-03-04T04:30:10.578Z,84.60
2023-03-04T04:30:43.052Z,85.63
2023-03-04T04:31:15.447Z,82.50
2023-03-04T04:31:47.767Z,83.17
2023-03-04T04:32:20.161Z,81.27
2023-03-04T04:32:52.472Z,83.97
2023-03-04T04:33:24.772Z,83.80
2023-03-04T04:33:57.253Z,83.47
2023-03-04T04:34:30.016Z,82.13
2023-03-04T04:35:02.285Z,81.67
2023-03-04T04:35:36.567Z,82.60
2023-03-04T04:36:14.478Z,83.53
2023-03-04T04:36:46.799Z,80.97
2023-03-04T04:37:19.665Z,82.67
2023-03-04T04:37:51.932Z,83.80
2023-03-04T04:38:24.776Z,82.40
2023-03-04T04:38:57.664Z,83.70
2023-03-04T04:39:29.971Z,82.67
2023-03-04T04:40:02.658Z,84.90
2023-03-04T04:40:35.440Z,85.97
2023-03-04T04:41:26.332Z,84.03
2023-03-04T04:41:58.674Z,84.20
2023-03-04T04:42:31.127Z,84.33
2023-03-04T04:43:03.791Z,82.97
2023-03-04T04:43:36.126Z,81.63
2023-03-04T04:44:09.482Z,82.63
2023-03-04T04:44:41.737Z,82.27
2023-03-04T04:45:14.009Z,85.23
2023-03-04T04:45:46.352Z,84.67
2023-03-04T04:46:19.539Z,85.60
2023-03-04T04:46:51.966Z,85.63
2023-03-04T04:47:24.512Z,83.40
2023-03-04T04:47:57.498Z,83.20
2023-03-04T04:48:29.829Z,83.27
2023-03-04T04:49:02.777Z,82.80
2023-03-04T04:49:35.037Z,83.17
2023-03-04T04:50:07.907Z,81.57
2023-03-04T04:50:40.221Z,81.87
2023-03-04T04:51:13.356Z,82.47
2023-03-04T04:51:46.313Z,83.17
2023-03-04T04:52:18.693Z,83.57
2023-03-04T04:52:51.003Z,81.63
2023-03-04T04:53:23.324Z,83.07
2023-03-04T04:53:55.704Z,81.83
2023-03-04T04:54:28.041Z,81.27
2023-03-04T04:55:00.372Z,83.00
2023-03-04T04:55:34.807Z,81.23
2023-03-04T04:56:16.555Z,82.63
2023-03-04T04:56:48.825Z,80.43
2023-03-04T04:57:21.099Z,81.27
2023-03-04T04:57:53.404Z,79.97
2023-03-04T04:58:25.692Z,81.20
2023-03-04T04:59:01.027Z,82.27
2023-03-04T04:59:33.322Z,78.07
2023-03-04T05:00:06.946Z,77.13
2023-03-04T05:00:39.216Z,77.53
2023-03-04T05:01:12.354Z,77.83
2023-03-04T05:01:44.724Z,81.07
2023-03-04T05:02:17.103Z,81.33
2023-03-04T05:02:49.399Z,80.87
2023-03-04T05:03:23.550Z,79.40
2023-03-04T05:03:56.177Z,79.57
2023-03-04T05:04:28.532Z,78.70
2023-03-04T05:05:00.812Z,82.47
2023-03-04T05:05:33.128Z,81.07
2023-03-04T05:06:08.076Z,80.27
2023-03-04T05:06:40.493Z,78.90
2023-03-04T05:07:12.881Z,77.97
2023-03-04T05:07:45.151Z,77.97
2023-03-04T05:08:17.442Z,78.10
2023-03-04T05:08:50.661Z,78.17
2023-03-04T05:09:23.129Z,82.03
2023-03-04T05:09:55.399Z,81.33
2023-03-04T05:10:27.705Z,78.30
2023-03-04T05:11:00.330Z,79.87
2023-03-04T05:11:32.961Z,79.23
2023-03-04T05:12:05.365Z,78.87
2023-03-04T05:12:37.634Z,82.17
2023-03-04T05:13:09.895Z,82.07
2023-03-04T05:13:42.386Z,81.07
2023-03-04T05:14:14.764Z,82.67
2023-03-04T05:14:47.064Z,83.73
2023-03-04T05:15:19.338Z,84.17
2023-03-04T05:15:54.048Z,83.70
2023-03-04T05:16:26.423Z,79.50
2023-03-04T05:16:58.721Z,80.57
2023-03-04T05:17:30.964Z,78.53
2023-03-04T05:18:03.281Z,79.40
2023-03-04T05:18:35.693Z,78.00
2023-03-04T05:19:08.039Z,79.87
2023-03-04T05:19:40.375Z,80.47
2023-03-04T05:20:12.911Z,79.20
2023-03-04T05:20:45.207Z,76.93
2023-03-04T05:21:17.525Z,76.33
2023-03-04T05:21:49.824Z,76.43
2023-03-04T05:22:22.101Z,78.07
2023-03-04T05:22:54.398Z,77.03
2023-03-04T05:23:29.215Z,75.23
2023-03-04T05:24:01.624Z,74.73
2023-03-04T05:24:34.903Z,75.10
2023-03-04T05:25:07.511Z,74.37
2023-03-04T05:25:39.781Z,76.90
2023-03-04T05:26:15.631Z,76.77
2023-03-04T05:26:47.962Z,77.03
2023-03-04T05:27:20.269Z,78.37
2023-03-04T05:27:52.627Z,77.70
2023-03-04T05:28:24.931Z,77.90
2023-03-04T05:28:57.215Z,79.00
2023-03-04T05:29:29.519Z,77.60
2023-03-04T05:30:01.934Z,78.40
2023-03-04T05:30:34.258Z,79.70
2023-03-04T05:31:07.122Z,77.37
2023-03-04T05:31:39.429Z,76.47
2023-03-04T05:32:11.768Z,78.27
2023-03-04T05:32:44.028Z,78.03
2023-03-04T05:33:17.501Z,76.10
2023-03-04T05:33:49.776Z,75.83
2023-03-04T05:34:22.060Z,77.83
2023-03-04T05:34:54.364Z,76.03
2023-03-04T05:35:28.854Z,75.37
2023-03-04T05:36:02.355Z,76.83
2023-03-04T05:36:34.650Z,73.87
2023-03-04T05:37:06.926Z,73.77
2023-03-04T05:37:39.210Z,76.30
2023-03-04T05:38:14.355Z,75.60
2023-03-04T05:38:46.619Z,73.23
2023-03-04T05:39:18.931Z,73.30
2023-03-04T05:39:51.256Z,73.40
2023-03-04T05:40:25.721Z,73.37
2023-03-04T05:41:00.670Z,73.77
2023-03-04T05:41:32.954Z,75.03
2023-03-04T05:42:05.270Z,73.40
2023-03-04T05:42:37.576Z,75.17
2023-03-04T05:43:10.264Z,75.70
2023-03-04T05:43:42.950Z,74.00
2023-03-04T05:44:15.323Z,77.67
2023-03-04T05:44:47.592Z,76.20
2023-03-04T05:45:19.906Z,75.13
2023-03-04T05:45:52.180Z,74.20
2023-03-04T05:46:25.820Z,75.67
2023-03-04T05:46:58.281Z,75.10
2023-03-04T05:47:30.556Z,73.27
2023-03-04T05:48:03.199Z,72.47
2023-03-04T05:48:35.533Z,74.83
2023-03-04T05:49:07.856Z,71.87
2023-03-04T05:49:41.160Z,71.63
2023-03-04T05:50:13.491Z,73.10
2023-03-04T05:50:46.053Z,74.43
2023-03-04T05:51:19.247Z,72.73
2023-03-04T05:51:51.523Z,70.43
2023-03-04T05:52:23.813Z,71.03
2023-03-04T05:52:56.114Z,71.33
2023-03-04T05:53:29.122Z,72.07
2023-03-04T05:54:01.415Z,72.23
2023-03-04T05:54:33.731Z,71.57
2023-03-04T05:55:06.613Z,73.43
2023-03-04T05:55:38.870Z,73.63
2023-03-04T05:56:16.644Z,70.17
2023-03-04T05:56:48.909Z,71.33
2023-03-04T05:57:21.231Z,70.40
2023-03-04T05:57:53.885Z,69.63
2023-03-04T05:58:26.309Z,73.37
2023-03-04T05:58:59.243Z,72.60
2023-03-04T05:59:31.548Z,72.33
2023-03-04T06:00:05.921Z,72.13
2023-03-04T06:00:38.210Z,75.13
2023-03-04T06:01:11.155Z,75.43
2023-03-04T06:01:43.428Z,73.80
2023-03-04T06:02:15.713Z,72.23
2023-03-04T06:02:48.080Z,72.37
2023-03-04T06:03:22.540Z,71.87
2023-03-04T06:03:54.979Z,71.57
2023-03-04T06:04:27.346Z,70.40
2023-03-04T06:04:59.615Z,68.53
2023-03-04T06:05:31.915Z,70.57
2023-03-04T06:06:04.495Z,70.23
2023-03-04T06:06:36.784Z,74.17
2023-03-04T06:07:09.121Z,72.00
2023-03-04T06:07:43.279Z,69.93
2023-03-04T06:08:15.674Z,70.07
2023-03-04T06:08:47.961Z,71.47
2023-03-04T06:09:21.230Z,71.97
2023-03-04T06:09:53.522Z,72.93
2023-03-04T06:10:25.794Z,72.60
2023-03-04T06:10:59.159Z,71.07
2023-03-04T06:11:31.462Z,71.80
2023-03-04T06:12:03.792Z,74.50
2023-03-04T06:12:36.265Z,76.27
2023-03-04T06:13:09.390Z,77.87
2023-03-04T06:13:41.735Z,80.43
2023-03-04T06:14:14.066Z,78.00
2023-03-04T06:14:46.374Z,71.70
2023-03-04T06:15:18.648Z,68.00
2023-03-04T06:15:56.347Z,68.30
2023-03-04T06:16:28.738Z,68.87
2023-03-04T06:17:01.036Z,66.03
2023-03-04T06:17:33.386Z,65.63
2023-03-04T06:18:07.562Z,63.43
2023-03-04T06:18:39.925Z,60.93
2023-03-04T06:19:12.241Z,64.27
2023-03-04T06:19:44.566Z,61.53
2023-03-04T06:20:16.920Z,61.03
2023-03-04T06:20:49.354Z,59.00
2023-03-04T06:21:21.603Z,59.50
2023-03-04T06:21:53.890Z,63.07
2023-03-04T06:22:26.231Z,63.80
2023-03-04T06:22:58.695Z,64.67
2023-03-04T06:23:31.153Z,62.70
2023-03-04T06:24:03.439Z,61.07
2023-03-04T06:24:36.385Z,64.33
2023-03-04T06:25:08.953Z,61.83
2023-03-04T06:25:41.257Z,60.43
2023-03-04T06:26:15.633Z,61.20
2023-03-04T06:26:48.076Z,61.53
2023-03-04T06:27:20.375Z,62.90
2023-03-04T06:27:54.815Z,63.50
2023-03-04T06:28:28.003Z,61.87
2023-03-04T06:29:00.289Z,64.00
2023-03-04T06:29:32.880Z,63.53
2023-03-04T06:30:05.732Z,65.40
2023-03-04T06:30:38.087Z,61.27
2023-03-04T06:31:10.516Z,61.00
2023-03-04T06:31:42.939Z,63.57
2023-03-04T06:32:15.312Z,64.77
2023-03-04T06:32:48.056Z,64.57
2023-03-04T06:33:20.689Z,63.67
2023-03-04T06:33:52.976Z,63.77
2023-03-04T06:34:25.246Z,64.07
2023-03-04T06:34:57.506Z,63.60
2023-03-04T06:35:30.015Z,60.63
2023-03-04T06:36:02.472Z,61.47
2023-03-04T06:36:35.000Z,60.07
2023-03-04T06:37:07.343Z,60.47
2023-03-04T06:37:39.742Z,62.33
2023-03-04T06:38:12.103Z,64.53
2023-03-04T06:38:44.401Z,64.40
2023-03-04T06:39:17.049Z,64.30
2023-03-04T06:39:49.325Z,62.83
2023-03-04T06:40:21.584Z,60.43
2023-03-04T06:40:56.812Z,60.97
2023-03-04T06:41:29.662Z,59.43
2023-03-04T06:42:02.051Z,58.43
2023-03-04T06:42:35.346Z,60.20
2023-03-04T06:43:07.631Z,60.53
2023-03-04T06:43:40.393Z,57.87
2023-03-04T06:44:13.035Z,55.80
2023-03-04T06:44:45.366Z,60.13
2023-03-04T06:45:17.794Z,61.43
2023-03-04T06:45:50.188Z,59.40
2023-03-04T06:46:22.707Z,58.07
2023-03-04T06:46:55.184Z,57.87
2023-03-04T06:47:28.701Z,55.27
2023-03-04T06:48:00.960Z,55.47
2023-03-04T06:48:33.294Z,55.47
2023-03-04T06:49:05.622Z,56.77
2023-03-04T06:49:37.880Z,56.03
2023-03-04T06:50:12.164Z,54.97
2023-03-04T06:50:44.454Z,52.17
2023-03-04T06:51:16.849Z,53.63
2023-03-04T06:51:49.198Z,52.47
2023-03-04T06:52:21.532Z,52.67
2023-03-04T06:52:57.022Z,55.53
2023-03-04T06:53:29.286Z,55.70
2023-03-04T06:54:01.572Z,55.43
2023-03-04T06:54:33.886Z,54.47
2023-03-04T06:55:07.157Z,54.20
2023-03-04T06:55:39.447Z,53.80
2023-03-04T06:56:16.101Z,53.10
2023-03-04T06:56:48.680Z,52.50
2023-03-04T06:57:20.944Z,52.63
2023-03-04T06:57:53.211Z,51.00
2023-03-04T06:58:25.483Z,50.90
2023-03-04T06:58:57.802Z,51.73
2023-03-04T06:59:30.108Z,51.67
2023-03-04T07:00:03.449Z,51.33
2023-03-04T07:00:35.812Z,51.73
2023-03-04T07:01:19.479Z,52.50